createdAt,value
2022-12-16T00:01:27.869Z,97013.78
2022-12-16T00:03:58.437Z,97021.63
2022-12-16T00:06:31.178Z,97021.88
2022-12-16T00:08:59.661Z,97028.25
2022-12-16T00:11:27.349Z,97026.94
2022-12-16T00:13:55.114Z,97023.19
2022-12-16T00:16:22.654Z,97032.28
2022-12-16T00:18:51.821Z,97034.09
2022-12-16T00:21:19.637Z,97040.88
2022-12-16T00:23:47.299Z,97040.06
2022-12-16T00:26:14.714Z,97045.13
2022-12-16T00:28:43.684Z,97034.44
2022-12-16T00:31:10.906Z,97031.38
2022-12-16T00:33:37.942Z,97031.84
2022-12-16T00:36:05.378Z,97028.84
2022-12-16T00:38:32.685Z,97025.66
2022-12-16T00:41:00.040Z,97025.94
2022-12-16T00:43:26.910Z,97031.47
2022-12-16T00:45:53.853Z,97023.94
2022-12-16T00:48:23.964Z,97030.41
2022-12-16T00:50:55.209Z,97040.50
2022-12-16T00:53:24.986Z,97040.59
2022-12-16T00:56:01.838Z,97038.75
2022-12-16T00:58:28.958Z,97038.03
2022-12-16T01:00:55.914Z,97048.53
2022-12-16T01:03:23.068Z,97047.13
2022-12-16T01:05:50.479Z,97040.81
2022-12-16T01:08:17.831Z,97047.34
2022-12-16T01:10:52.381Z,97061.00
2022-12-16T01:13:20.644Z,97059.16
2022-12-16T01:15:47.583Z,97061.50
2022-12-16T01:18:15.256Z,97072.00
2022-12-16T01:20:42.542Z,97068.19
2022-12-16T01:23:10.172Z,97074.00
2022-12-16T01:25:37.511Z,97077.78
2022-12-16T01:28:04.468Z,97081.50
2022-12-16T01:30:31.695Z,97077.72
2022-12-16T01:32:58.702Z,97083.75
2022-12-16T01:35:52.191Z,97087.13
2022-12-16T01:38:13.084Z,97080.00
2022-12-16T01:40:39.961Z,97083.28
2022-12-16T01:43:14.175Z,97087.22
2022-12-16T01:45:41.204Z,97081.25
2022-12-16T01:48:36.181Z,97078.25
2022-12-16T01:51:14.318Z,97085.53
2022-12-16T01:53:43.097Z,97085.44
2022-12-16T01:56:13.755Z,97090.78
2022-12-16T01:58:42.808Z,97089.25
2022-12-16T02:01:10.292Z,97101.50
2022-12-16T02:03:38.086Z,97113.03
2022-12-16T02:06:07.343Z,97109.75
2022-12-16T02:08:35.105Z,97109.09
2022-12-16T02:11:15.362Z,97103.59
2022-12-16T02:14:09.797Z,97112.69
2022-12-16T02:16:47.723Z,97119.69
2022-12-16T02:19:42.329Z,97124.28
2022-12-16T02:22:45.847Z,97121.09
2022-12-16T02:25:19.094Z,97123.72
2022-12-16T02:28:02.711Z,97120.94
2022-12-16T02:31:04.915Z,97117.09
2022-12-16T02:33:43.702Z,97125.84
2022-12-16T02:36:25.070Z,97115.16
2022-12-16T02:39:23.223Z,97113.81
2022-12-16T02:42:11.383Z,97117.34
2022-12-16T02:44:57.511Z,97109.66
2022-12-16T02:47:25.058Z,97115.63
2022-12-16T02:49:55.062Z,97112.34
2022-12-16T02:52:29.967Z,97114.56
2022-12-16T02:55:02.156Z,97119.56
2022-12-16T02:57:47.723Z,97123.16
2022-12-16T03:00:21.289Z,97123.22
2022-12-16T03:03:05.790Z,97118.19
2022-12-16T03:05:38.321Z,97125.03
2022-12-16T03:08:12.298Z,97121.69
2022-12-16T03:10:50.025Z,97126.06
2022-12-16T03:13:19.893Z,97116.78
2022-12-16T03:15:49.952Z,97129.22
2022-12-16T03:18:18.365Z,97128.19
2022-12-16T03:21:04.068Z,97133.31
2022-12-16T03:23:44.707Z,97127.38
2022-12-16T03:26:32.331Z,97130.53
2022-12-16T03:29:05.651Z,97132.88
2022-12-16T03:31:52.257Z,97136.28
2022-12-16T03:34:40.549Z,97142.78
2022-12-16T03:37:13.281Z,97141.69
2022-12-16T03:39:50.050Z,97145.53
2022-12-16T03:42:17.048Z,97148.63
2022-12-16T03:44:46.493Z,97150.22
2022-12-16T03:47:18.356Z,97156.31
2022-12-16T03:49:48.624Z,97165.56
2022-12-16T03:52:16.273Z,97169.47
2022-12-16T03:54:43.165Z,97169.34
2022-12-16T03:57:15.011Z,97177.44
2022-12-16T03:59:42.654Z,97181.41
2022-12-16T04:02:09.754Z,97180.00
2022-12-16T04:04:36.774Z,97178.50
2022-12-16T04:07:22.189Z,97189.72
2022-12-16T04:09:50.467Z,97196.53
2022-12-16T04:12:36.810Z,97194.22
2022-12-16T04:15:24.420Z,97191.88
2022-12-16T04:18:10.189Z,97190.81
2022-12-16T04:21:00.999Z,97200.63
2022-12-16T04:23:48.293Z,97204.22
2022-12-16T04:26:15.437Z,97208.59
2022-12-16T04:28:42.389Z,97206.94
2022-12-16T04:31:09.859Z,97207.91
2022-12-16T04:33:55.719Z,97207.50
2022-12-16T04:36:41.133Z,97210.09
2022-12-16T04:39:27.033Z,97208.56
2022-12-16T04:42:13.835Z,97209.41
2022-12-16T04:44:59.695Z,97214.00
2022-12-16T04:47:45.595Z,97226.13
2022-12-16T04:50:30.886Z,97235.16
2022-12-16T04:53:17.077Z,97232.13
2022-12-16T04:56:04.709Z,97237.84
2022-12-16T04:58:50.870Z,97236.59
2022-12-16T05:01:36.778Z,97237.84
2022-12-16T05:04:22.765Z,97243.03
2022-12-16T05:07:07.946Z,97250.16
2022-12-16T05:09:53.650Z,97252.13
2022-12-16T05:12:39.527Z,97247.41
2022-12-16T05:15:25.562Z,97237.13
2022-12-16T05:18:11.371Z,97242.72
2022-12-16T05:20:57.049Z,97249.06
2022-12-16T05:23:42.236Z,97247.56
2022-12-16T05:26:32.507Z,97257.97
2022-12-16T05:29:17.810Z,97262.31
2022-12-16T05:32:03.466Z,97264.66
2022-12-16T05:34:49.225Z,97266.03
2022-12-16T05:37:35.034Z,97263.56
2022-12-16T05:40:21.060Z,97271.91
2022-12-16T05:43:13.376Z,97280.84
2022-12-16T05:46:02.523Z,97287.00
2022-12-16T05:48:48.603Z,97295.91
2022-12-16T05:51:34.423Z,97292.34
2022-12-16T05:54:20.257Z,97300.69
2022-12-16T05:57:05.293Z,97304.53
2022-12-16T05:59:51.401Z,97308.91
2022-12-16T06:02:38.404Z,97308.91
2022-12-16T06:05:24.456Z,97324.63
2022-12-16T06:08:11.774Z,97324.38
2022-12-16T06:10:57.837Z,97329.03
2022-12-16T06:13:42.994Z,97334.22
2022-12-16T06:16:28.860Z,97332.31
2022-12-16T06:19:14.032Z,97347.50
2022-12-16T06:21:59.812Z,97353.66
2022-12-16T06:24:45.020Z,97359.28
2022-12-16T06:27:30.886Z,97371.44
2022-12-16T06:30:16.700Z,97359.94
2022-12-16T06:33:02.538Z,97365.28
2022-12-16T06:35:47.852Z,97374.75
2022-12-16T06:38:33.561Z,97373.66
2022-12-16T06:41:18.769Z,97380.63
2022-12-16T06:44:04.597Z,97383.78
2022-12-16T06:46:50.516Z,97381.88
2022-12-16T06:49:36.134Z,97395.25
2022-12-16T06:52:22.094Z,97397.31
2022-12-16T06:55:08.172Z,97406.88
2022-12-16T06:57:54.022Z,97411.97
2022-12-16T07:00:39.863Z,97414.97
2022-12-16T07:03:25.193Z,97417.00
2022-12-16T07:06:14.388Z,97428.94
2022-12-16T07:08:59.533Z,97430.16
2022-12-16T07:11:45.396Z,97440.41
2022-12-16T07:14:31.476Z,97440.28
2022-12-16T07:17:17.831Z,97449.59
2022-12-16T07:20:03.837Z,97457.53
2022-12-16T07:22:58.438Z,97462.19
2022-12-16T07:25:48.398Z,97464.78
2022-12-16T07:28:34.256Z,97461.50
2022-12-16T07:31:20.242Z,97461.09
2022-12-16T07:34:06.244Z,97464.66
2022-12-16T07:36:52.048Z,97465.59
2022-12-16T07:39:37.713Z,97471.38
2022-12-16T07:42:23.737Z,97475.88
2022-12-16T07:45:09.690Z,97480.28
2022-12-16T07:47:55.810Z,97490.94
2022-12-16T07:50:41.555Z,97489.97
2022-12-16T07:53:31.320Z,97490.94
2022-12-16T07:56:17.406Z,97491.34
2022-12-16T07:59:03.654Z,97491.22
2022-12-16T08:01:49.390Z,97499.50
2022-12-16T08:04:35.380Z,97508.31
2022-12-16T08:07:21.211Z,97501.31
2022-12-16T08:10:06.533Z,97501.72
2022-12-16T08:12:52.394Z,97514.91
2022-12-16T08:15:38.171Z,97517.09
2022-12-16T08:18:24.089Z,97522.91
2022-12-16T08:21:09.473Z,97529.78
2022-12-16T08:23:55.320Z,97524.47
2022-12-16T08:26:41.529Z,97529.56
2022-12-16T08:29:43.877Z,97540.50
2022-12-16T08:32:41.998Z,97538.44
2022-12-16T08:35:31.135Z,97545.69
2022-12-16T08:38:16.638Z,97552.28
2022-12-16T08:41:03.589Z,97557.91
2022-12-16T08:43:52.084Z,97569.69
2022-12-16T08:46:38.555Z,97565.31
2022-12-16T08:49:24.294Z,97565.72
2022-12-16T08:52:10.197Z,97574.09
2022-12-16T08:54:56.110Z,97578.88
2022-12-16T08:57:42.477Z,97580.91
2022-12-16T09:00:29.379Z,97575.59
2022-12-16T09:03:18.815Z,97595.22
2022-12-16T09:06:04.318Z,97592.88
2022-12-16T09:08:50.262Z,97591.63
2022-12-16T09:11:36.068Z,97603.41
2022-12-16T09:14:21.921Z,97610.03
2022-12-16T09:17:07.769Z,97621.22
2022-12-16T09:19:55.352Z,97612.91
2022-12-16T09:22:41.390Z,97617.81
2022-12-16T09:25:27.229Z,97607.78
2022-12-16T09:28:12.527Z,97616.88
2022-12-16T09:30:58.470Z,97620.09
2022-12-16T09:33:44.530Z,97620.66
2022-12-16T09:36:30.574Z,97621.53
2022-12-16T09:39:15.933Z,97623.34
2022-12-16T09:42:17.954Z,97622.03
2022-12-16T09:45:30.079Z,97627.13
2022-12-16T09:48:22.541Z,97630.25
2022-12-16T09:51:32.757Z,97629.72
2022-12-16T09:54:22.450Z,97639.44
2022-12-16T09:57:08.038Z,97639.84
2022-12-16T09:59:58.047Z,97635.75
2022-12-16T10:02:45.280Z,97635.34
2022-12-16T10:05:41.954Z,97643.13
2022-12-16T10:08:55.380Z,97646.44
2022-12-16T10:12:13.384Z,97646.72
2022-12-16T10:15:31.618Z,97649.97
2022-12-16T10:18:21.544Z,97646.22
2022-12-16T10:21:12.393Z,97652.88
2022-12-16T10:24:12.400Z,97652.84
2022-12-16T10:27:33.671Z,97647.09
2022-12-16T10:30:22.050Z,97656.91
2022-12-16T10:33:10.480Z,97655.94
2022-12-16T10:36:07.956Z,97654.72
2022-12-16T10:39:20.121Z,97651.06
2022-12-16T10:42:10.570Z,97650.75
2022-12-16T10:45:13.821Z,97653.38
2022-12-16T10:47:59.750Z,97653.66
2022-12-16T10:50:46.265Z,97662.13
2022-12-16T10:53:33.636Z,97665.63
2022-12-16T10:56:58.489Z,97661.78
2022-12-16T10:59:57.993Z,97658.94
2022-12-16T11:02:51.095Z,97667.16
2022-12-16T11:05:52.684Z,97668.25
2022-12-16T11:08:49.461Z,97671.06
2022-12-16T11:11:48.147Z,97679.00
2022-12-16T11:14:50.308Z,97677.38
2022-12-16T11:17:46.864Z,97676.34
2022-12-16T11:20:40.384Z,97679.50
2022-12-16T11:23:41.305Z,97675.38
2022-12-16T11:26:38.508Z,97690.50
2022-12-16T11:29:35.610Z,97687.28
2022-12-16T11:32:44.184Z,97681.81
2022-12-16T11:35:36.097Z,97681.00
2022-12-16T11:38:39.163Z,97692.31
2022-12-16T11:41:37.195Z,97701.13
2022-12-16T11:44:23.811Z,97696.03
2022-12-16T11:47:09.238Z,97696.84
2022-12-16T11:49:54.902Z,97694.69
2022-12-16T11:52:41.755Z,97690.97
2022-12-16T11:56:06.476Z,97682.91
2022-12-16T11:58:55.358Z,97682.94
2022-12-16T12:02:14.333Z,97698.41
2022-12-16T12:05:04.167Z,97708.00
2022-12-16T12:08:16.339Z,97706.19
2022-12-16T12:11:42.681Z,97717.03
2022-12-16T12:15:01.236Z,97717.03
2022-12-16T12:18:05.325Z,97725.13
2022-12-16T12:21:04.980Z,97730.34
2022-12-16T12:24:09.091Z,97722.25
2022-12-16T12:27:03.689Z,97732.97
2022-12-16T12:30:25.457Z,97740.88
2022-12-16T12:33:36.725Z,97740.34
2022-12-16T12:36:53.969Z,97755.66
2022-12-16T12:40:04.934Z,97760.78
2022-12-16T12:43:13.928Z,97765.31
2022-12-16T12:46:13.165Z,97763.22
2022-12-16T12:49:42.450Z,97753.44
2022-12-16T12:52:57.384Z,97750.09
2022-12-16T12:55:57.560Z,97760.44
2022-12-16T12:58:52.142Z,97770.00
2022-12-16T13:01:45.950Z,97765.69
2022-12-16T13:04:41.196Z,97753.03
2022-12-16T13:07:28.045Z,97757.06
2022-12-16T13:10:55.764Z,97760.59
2022-12-16T13:13:51.021Z,97756.66
2022-12-16T13:17:02.818Z,97778.00
2022-12-16T13:19:48.208Z,97776.06
2022-12-16T13:22:47.665Z,97778.69
2022-12-16T13:26:10.621Z,97787.50
2022-12-16T13:29:01.869Z,97787.13
2022-12-16T13:31:49.075Z,97794.22
2022-12-16T13:34:34.899Z,97789.84
2022-12-16T13:37:28.376Z,97791.44
2022-12-16T13:40:41.215Z,97809.41
2022-12-16T13:44:11.280Z,97813.56
2022-12-16T13:47:12.130Z,97817.50
2022-12-16T13:50:06.529Z,97809.84
2022-12-16T13:53:16.648Z,97812.56
2022-12-16T13:56:18.183Z,97822.53
2022-12-16T13:59:18.827Z,97830.91
2022-12-16T14:02:13.410Z,97839.19
2022-12-16T14:05:04.143Z,97840.84
2022-12-16T14:07:53.087Z,97841.47
2022-12-16T14:10:52.660Z,97832.22
2022-12-16T14:13:54.840Z,97862.97
2022-12-16T14:17:10.238Z,97853.63
2022-12-16T14:20:28.497Z,97872.75
2022-12-16T14:23:58.636Z,97866.78
2022-12-16T14:26:45.351Z,97875.09
2022-12-16T14:29:46.649Z,97883.09
2022-12-16T14:32:51.886Z,97886.00
2022-12-16T14:35:44.462Z,97882.63
2022-12-16T14:38:42.682Z,97892.72
2022-12-16T14:41:46.758Z,97895.31
2022-12-16T14:44:40.035Z,97901.06
2022-12-16T14:47:32.345Z,97909.75
2022-12-16T14:50:38.167Z,97915.63
2022-12-16T14:53:42.218Z,97912.13
2022-12-16T14:56:41.492Z,97919.00
2022-12-16T14:59:38.651Z,97924.19
2022-12-16T15:02:56.805Z,97931.59
2022-12-16T15:05:52.066Z,97940.97
2022-12-16T15:08:40.289Z,97938.34
2022-12-16T15:11:31.128Z,97942.53
2022-12-16T15:14:19.440Z,97954.09
2022-12-16T15:17:10.075Z,97954.09
2022-12-16T15:20:10.263Z,97961.03
2022-12-16T15:22:56.958Z,97954.41
2022-12-16T15:25:45.482Z,97954.66
2022-12-16T15:28:59.449Z,97968.09
2022-12-16T15:31:51.400Z,97969.63
2022-12-16T15:35:09.573Z,97988.59
2022-12-16T15:38:04.110Z,97984.28
2022-12-16T15:40:53.403Z,97998.03
2022-12-16T15:43:46.813Z,98001.56
2022-12-16T15:46:47.117Z,97995.22
2022-12-16T15:49:42.103Z,98000.59
2022-12-16T15:52:52.595Z,98017.88
2022-12-16T15:55:57.044Z,98020.72
2022-12-16T15:58:49.168Z,98022.84
2022-12-16T16:01:42.339Z,98028.84
2022-12-16T16:04:45.796Z,98027.19
2022-12-16T16:07:40.478Z,98028.69
2022-12-16T16:10:42.802Z,98030.31
2022-12-16T16:13:29.231Z,98032.06
2022-12-16T16:16:15.235Z,98022.31
2022-12-16T16:19:02.093Z,98033.66
2022-12-16T16:21:48.682Z,98048.75
2022-12-16T16:24:34.739Z,98051.91
2022-12-16T16:27:22.171Z,98055.47
2022-12-16T16:30:07.558Z,98062.47
2022-12-16T16:32:53.524Z,98070.84
2022-12-16T16:35:42.425Z,98075.81
2022-12-16T16:38:31.765Z,98078.88
2022-12-16T16:41:17.873Z,98086.44
2022-12-16T16:44:04.008Z,98078.63
2022-12-16T16:46:59.143Z,98077.09
2022-12-16T16:49:48.790Z,98086.22
2022-12-16T16:52:38.509Z,98095.44
2022-12-16T16:55:25.884Z,98089.53
2022-12-16T16:58:11.647Z,98081.97
2022-12-16T17:00:57.614Z,98079.00
2022-12-16T17:03:43.672Z,98088.94
2022-12-16T17:06:30.012Z,98092.50
2022-12-16T17:09:15.769Z,98103.25
2022-12-16T17:12:01.860Z,98112.22
2022-12-16T17:14:47.374Z,98107.25
2022-12-16T17:17:33.239Z,98109.75
2022-12-16T17:20:19.391Z,98116.94
2022-12-16T17:23:07.868Z,98117.78
2022-12-16T17:25:54.129Z,98121.81
2022-12-16T17:28:42.060Z,98134.09
2022-12-16T17:31:28.806Z,98142.94
2022-12-16T17:34:14.777Z,98148.16
2022-12-16T17:37:00.845Z,98155.47
2022-12-16T17:39:46.713Z,98154.56
2022-12-16T17:42:32.496Z,98158.53
2022-12-16T17:45:18.535Z,98150.44
2022-12-16T17:48:04.518Z,98159.94
2022-12-16T17:50:50.168Z,98166.88
2022-12-16T17:53:36.616Z,98173.56
2022-12-16T17:56:24.463Z,98174.50
2022-12-16T17:59:11.320Z,98176.78
2022-12-16T18:01:57.457Z,98162.91
2022-12-16T18:04:43.683Z,98177.47
2022-12-16T18:07:29.512Z,98181.44
2022-12-16T18:10:14.981Z,98188.06
2022-12-16T18:13:05.398Z,98176.00
2022-12-16T18:15:50.761Z,98190.28
2022-12-16T18:18:39.333Z,98174.75
2022-12-16T18:21:32.939Z,98188.31
2022-12-16T18:24:18.771Z,98207.94
2022-12-16T18:27:04.097Z,98207.25
2022-12-16T18:29:49.691Z,98211.03
2022-12-16T18:32:35.579Z,98205.38
2022-12-16T18:35:21.930Z,98194.56
2022-12-16T18:38:10.027Z,98201.25
2022-12-16T18:40:58.182Z,98208.19
2022-12-16T18:43:43.518Z,98221.38
2022-12-16T18:46:29.393Z,98222.72
2022-12-16T18:49:14.563Z,98231.91
2022-12-16T18:52:00.357Z,98233.59
2022-12-16T18:54:45.899Z,98232.59
2022-12-16T18:57:36.419Z,98236.34
2022-12-16T19:00:26.524Z,98245.75
2022-12-16T19:03:12.460Z,98262.94
2022-12-16T19:05:57.796Z,98261.53
2022-12-16T19:08:43.614Z,98258.91
2022-12-16T19:11:29.582Z,98266.47
2022-12-16T19:14:15.492Z,98268.97
2022-12-16T19:17:00.727Z,98262.13
2022-12-16T19:19:46.842Z,98267.53
2022-12-16T19:22:32.000Z,98269.88
2022-12-16T19:25:17.831Z,98282.19
2022-12-16T19:28:03.393Z,98267.00
2022-12-16T19:30:49.125Z,98276.66
2022-12-16T19:33:35.099Z,98281.94
2022-12-16T19:36:20.866Z,98281.13
2022-12-16T19:39:06.164Z,98290.22
2022-12-16T19:41:52.193Z,98294.84
2022-12-16T19:44:38.319Z,98303.94
2022-12-16T19:47:24.143Z,98316.94
2022-12-16T19:50:09.483Z,98315.75
2022-12-16T19:52:55.988Z,98310.69
2022-12-16T19:55:42.272Z,98328.31
2022-12-16T19:58:28.062Z,98333.19
2022-12-16T20:01:13.554Z,98330.97
2022-12-16T20:03:59.622Z,98330.41
2022-12-16T20:06:44.915Z,98340.97
2022-12-16T20:09:30.691Z,98332.69
2022-12-16T20:12:27.722Z,98343.00
2022-12-16T20:15:13.381Z,98348.22
2022-12-16T20:18:00.226Z,98362.88
2022-12-16T20:20:46.295Z,98359.94
2022-12-16T20:23:32.348Z,98363.75
2022-12-16T20:26:20.383Z,98367.91
2022-12-16T20:29:06.765Z,98369.28
2022-12-16T20:31:53.365Z,98383.31
2022-12-16T20:34:41.989Z,98373.53
2022-12-16T20:37:27.839Z,98372.41
2022-12-16T20:40:13.358Z,98380.47
2022-12-16T20:42:59.219Z,98382.63
2022-12-16T20:45:45.329Z,98396.41
2022-12-16T20:48:35.553Z,98396.94
2022-12-16T20:51:26.794Z,98394.25
2022-12-16T20:54:12.876Z,98394.25
2022-12-16T20:57:01.048Z,98400.84
2022-12-16T20:59:46.457Z,98406.75
2022-12-16T21:05:38.366Z,98405.25
2022-12-16T21:08:24.540Z,98406.38
2022-12-16T21:11:15.344Z,98418.81
2022-12-16T21:14:00.728Z,98419.75
2022-12-16T21:16:46.624Z,98419.53
2022-12-16T21:19:33.837Z,98430.97
2022-12-16T21:22:19.814Z,98429.44
2022-12-16T21:25:05.823Z,98434.19
2022-12-16T21:27:52.011Z,98432.97
2022-12-16T21:30:38.355Z,98424.13
2022-12-16T21:33:24.171Z,98432.91
2022-12-16T21:36:13.411Z,98434.88
2022-12-16T21:38:59.200Z,98449.88
2022-12-16T21:41:45.480Z,98448.00
2022-12-16T21:44:31.391Z,98458.53
2022-12-16T21:47:17.157Z,98459.50
2022-12-16T21:50:02.559Z,98468.19
2022-12-16T21:52:48.055Z,98475.66
2022-12-16T21:55:34.015Z,98486.47
2022-12-16T21:58:19.941Z,98488.75
2022-12-16T22:01:13.775Z,98497.25
2022-12-16T22:03:59.689Z,98497.28
2022-12-16T22:06:48.855Z,98503.22
2022-12-16T22:09:35.164Z,98499.78
2022-12-16T22:12:21.309Z,98512.69
2022-12-16T22:15:06.694Z,98503.44
2022-12-16T22:17:58.047Z,98510.50
2022-12-16T22:20:45.168Z,98516.75
2022-12-16T22:23:31.340Z,98520.81
2022-12-16T22:26:19.315Z,98532.25
2022-12-16T22:29:05.284Z,98533.19
2022-12-16T22:31:50.600Z,98540.25
2022-12-16T22:34:36.598Z,98544.53
2022-12-16T22:37:22.453Z,98538.09
2022-12-16T22:40:08.248Z,98545.34
2022-12-16T22:42:56.251Z,98550.34
2022-12-16T22:45:42.384Z,98550.13
2022-12-16T22:48:31.538Z,98551.59
2022-12-16T22:51:17.273Z,98557.63
2022-12-16T22:54:02.588Z,98553.47
2022-12-16T22:56:48.613Z,98565.41
2022-12-16T22:59:34.527Z,98563.00
2022-12-16T23:02:20.455Z,98568.22
2022-12-16T23:05:06.265Z,98566.03
2022-12-16T23:07:53.166Z,98571.13
2022-12-16T23:10:39.290Z,98583.28
2022-12-16T23:13:25.178Z,98572.16
2022-12-16T23:16:10.977Z,98574.13
2022-12-16T23:18:56.831Z,98584.59
2022-12-16T23:21:42.743Z,98590.44
2022-12-16T23:24:30.041Z,98595.41
2022-12-16T23:27:16.070Z,98590.66
2022-12-16T23:30:01.935Z,98596.03
2022-12-16T23:32:48.026Z,98597.19
2022-12-16T23:35:34.037Z,98602.59
2022-12-16T23:38:25.567Z,98600.53
2022-12-16T23:41:18.161Z,98600.63
2022-12-16T23:44:04.767Z,98601.34
2022-12-16T23:46:50.594Z,98607.75
2022-12-16T23:49:35.940Z,98604.31
2022-12-16T23:52:21.991Z,98601.66
2022-12-16T23:55:07.376Z,98607.75
2022-12-16T23:57:53.113Z,98604.53
